sensor_id;sensor_type;location;lat;lon;timestamp;P1;durP1;ratioP1;P2;durP2;ratioP2
57551;SDS011;43379;48.160;14.036;2022-08-19T00:01:45;5.30;;;4.80;;
57551;SDS011;43379;48.160;14.036;2022-08-19T00:04:13;6.90;;;5.47;;
57551;SDS011;43379;48.160;14.036;2022-08-19T00:06:41;9.13;;;5.53;;
57551;SDS011;43379;48.160;14.036;2022-08-19T00:09:08;8.73;;;5.20;;
57551;SDS011;43379;48.160;14.036;2022-08-19T00:11:36;5.30;;;4.40;;
57551;SDS011;43379;48.160;14.036;2022-08-19T00:14:03;8.13;;;5.90;;
57551;SDS011;43379;48.160;14.036;2022-08-19T00:16:34;7.13;;;5.30;;
57551;SDS011;43379;48.160;14.036;2022-08-19T00:19:01;4.60;;;4.20;;
57551;SDS011;43379;48.160;14.036;2022-08-19T00:21:26;6.23;;;5.70;;
57551;SDS011;43379;48.160;14.036;2022-08-19T00:23:53;6.20;;;5.60;;
57551;SDS011;43379;48.160;14.036;2022-08-19T00:26:19;6.33;;;5.73;;
57551;SDS011;43379;48.160;14.036;2022-08-19T00:28:45;6.60;;;6.00;;
57551;SDS011;43379;48.160;14.036;2022-08-19T00:31:12;6.67;;;5.80;;
57551;SDS011;43379;48.160;14.036;2022-08-19T00:33:38;6.43;;;5.83;;
57551;SDS011;43379;48.160;14.036;2022-08-19T00:36:04;7.10;;;5.73;;
57551;SDS011;43379;48.160;14.036;2022-08-19T00:38:36;6.50;;;5.60;;
57551;SDS011;43379;48.160;14.036;2022-08-19T00:41:06;6.63;;;6.00;;
57551;SDS011;43379;48.160;14.036;2022-08-19T00:43:32;7.67;;;5.80;;
57551;SDS011;43379;48.160;14.036;2022-08-19T00:45:58;5.80;;;5.03;;
57551;SDS011;43379;48.160;14.036;2022-08-19T00:48:24;6.97;;;6.27;;
57551;SDS011;43379;48.160;14.036;2022-08-19T00:50:50;5.37;;;4.97;;
57551;SDS011;43379;48.160;14.036;2022-08-19T00:53:20;7.43;;;5.63;;
57551;SDS011;43379;48.160;14.036;2022-08-19T00:55:49;7.03;;;5.40;;
57551;SDS011;43379;48.160;14.036;2022-08-19T00:58:19;8.60;;;6.23;;
57551;SDS011;43379;48.160;14.036;2022-08-19T01:00:47;6.07;;;5.47;;
57551;SDS011;43379;48.160;14.036;2022-08-19T01:03:15;7.20;;;6.03;;
57551;SDS011;43379;48.160;14.036;2022-08-19T01:05:43;6.83;;;6.30;;
57551;SDS011;43379;48.160;14.036;2022-08-19T01:08:10;6.70;;;5.87;;
57551;SDS011;43379;48.160;14.036;2022-08-19T01:10:40;7.93;;;6.03;;
57551;SDS011;43379;48.160;14.036;2022-08-19T01:13:09;7.50;;;6.43;;
57551;SDS011;43379;48.160;14.036;2022-08-19T01:15:41;7.93;;;6.40;;
57551;SDS011;43379;48.160;14.036;2022-08-19T01:18:14;7.30;;;6.47;;
57551;SDS011;43379;48.160;14.036;2022-08-19T01:20:42;6.17;;;5.50;;
57551;SDS011;43379;48.160;14.036;2022-08-19T01:23:09;7.77;;;6.40;;
57551;SDS011;43379;48.160;14.036;2022-08-19T01:25:38;6.33;;;5.73;;
57551;SDS011;43379;48.160;14.036;2022-08-19T01:28:08;7.17;;;6.47;;
57551;SDS011;43379;48.160;14.036;2022-08-19T01:30:45;10.70;;;5.57;;
57551;SDS011;43379;48.160;14.036;2022-08-19T01:33:11;8.63;;;5.77;;
57551;SDS011;43379;48.160;14.036;2022-08-19T01:35:37;6.23;;;5.63;;
57551;SDS011;43379;48.160;14.036;2022-08-19T01:38:05;6.73;;;6.00;;
57551;SDS011;43379;48.160;14.036;2022-08-19T01:40:34;7.17;;;5.70;;
57551;SDS011;43379;48.160;14.036;2022-08-19T01:43:03;8.00;;;6.17;;
57551;SDS011;43379;48.160;14.036;2022-08-19T01:45:31;7.37;;;6.63;;
57551;SDS011;43379;48.160;14.036;2022-08-19T01:47:58;8.03;;;6.83;;
57551;SDS011;43379;48.160;14.036;2022-08-19T01:50:25;8.50;;;7.80;;
57551;SDS011;43379;48.160;14.036;2022-08-19T01:52:51;8.30;;;7.60;;
57551;SDS011;43379;48.160;14.036;2022-08-19T01:55:18;7.73;;;6.93;;
57551;SDS011;43379;48.160;14.036;2022-08-19T01:57:47;8.77;;;7.97;;
57551;SDS011;43379;48.160;14.036;2022-08-19T02:00:21;8.83;;;8.03;;
57551;SDS011;43379;48.160;14.036;2022-08-19T02:02:48;8.13;;;7.43;;
57551;SDS011;43379;48.160;14.036;2022-08-19T02:05:14;10.13;;;7.50;;
57551;SDS011;43379;48.160;14.036;2022-08-19T02:07:42;7.53;;;6.93;;
57551;SDS011;43379;48.160;14.036;2022-08-19T02:10:11;8.57;;;7.43;;
57551;SDS011;43379;48.160;14.036;2022-08-19T02:12:39;10.23;;;9.43;;
57551;SDS011;43379;48.160;14.036;2022-08-19T02:15:05;9.73;;;8.77;;
57551;SDS011;43379;48.160;14.036;2022-08-19T02:17:32;9.63;;;8.93;;
57551;SDS011;43379;48.160;14.036;2022-08-19T02:19:58;11.70;;;9.17;;
57551;SDS011;43379;48.160;14.036;2022-08-19T02:22:24;10.47;;;9.67;;
57551;SDS011;43379;48.160;14.036;2022-08-19T02:24:51;12.93;;;10.03;;
57551;SDS011;43379;48.160;14.036;2022-08-19T02:27:17;10.30;;;9.33;;
57551;SDS011;43379;48.160;14.036;2022-08-19T02:29:43;10.40;;;9.33;;
57551;SDS011;43379;48.160;14.036;2022-08-19T02:34:43;9.23;;;8.43;;
57551;SDS011;43379;48.160;14.036;2022-08-19T02:37:09;11.73;;;9.33;;
57551;SDS011;43379;48.160;14.036;2022-08-19T02:39:55;9.03;;;8.20;;
57551;SDS011;43379;48.160;14.036;2022-08-19T02:42:21;8.37;;;7.67;;
57551;SDS011;43379;48.160;14.036;2022-08-19T02:44:46;9.07;;;8.37;;
57551;SDS011;43379;48.160;14.036;2022-08-19T02:47:12;10.03;;;8.80;;
57551;SDS011;43379;48.160;14.036;2022-08-19T02:49:40;10.03;;;9.33;;
57551;SDS011;43379;48.160;14.036;2022-08-19T02:52:06;10.50;;;9.70;;
57551;SDS011;43379;48.160;14.036;2022-08-19T02:54:32;10.07;;;9.17;;
57551;SDS011;43379;48.160;14.036;2022-08-19T02:56:58;11.07;;;10.10;;
57551;SDS011;43379;48.160;14.036;2022-08-19T02:59:23;10.30;;;9.40;;
57551;SDS011;43379;48.160;14.036;2022-08-19T03:01:51;10.27;;;9.27;;
57551;SDS011;43379;48.160;14.036;2022-08-19T03:04:17;11.30;;;10.20;;
57551;SDS011;43379;48.160;14.036;2022-08-19T03:06:44;9.93;;;8.97;;
57551;SDS011;43379;48.160;14.036;2022-08-19T03:09:11;10.87;;;9.90;;
57551;SDS011;43379;48.160;14.036;2022-08-19T03:11:37;11.43;;;10.40;;
57551;SDS011;43379;48.160;14.036;2022-08-19T03:14:04;15.87;;;10.60;;
57551;SDS011;43379;48.160;14.036;2022-08-19T03:16:31;10.83;;;9.93;;
57551;SDS011;43379;48.160;14.036;2022-08-19T03:18:59;10.73;;;9.83;;
57551;SDS011;43379;48.160;14.036;2022-08-19T03:21:27;11.17;;;10.30;;
57551;SDS011;43379;48.160;14.036;2022-08-19T03:23:56;9.77;;;9.00;;
57551;SDS011;43379;48.160;14.036;2022-08-19T03:26:23;10.80;;;9.87;;
57551;SDS011;43379;48.160;14.036;2022-08-19T03:28:49;11.30;;;10.13;;
57551;SDS011;43379;48.160;14.036;2022-08-19T03:31:16;10.53;;;9.83;;
57551;SDS011;43379;48.160;14.036;2022-08-19T03:33:45;10.03;;;9.13;;
57551;SDS011;43379;48.160;14.036;2022-08-19T03:36:15;10.33;;;9.53;;
57551;SDS011;43379;48.160;14.036;2022-08-19T03:38:46;9.70;;;8.97;;
57551;SDS011;43379;48.160;14.036;2022-08-19T03:41:17;9.60;;;8.90;;
57551;SDS011;43379;48.160;14.036;2022-08-19T03:43:45;9.77;;;8.97;;
57551;SDS011;43379;48.160;14.036;2022-08-19T03:46:14;9.80;;;9.10;;
57551;SDS011;43379;48.160;14.036;2022-08-19T03:48:48;10.27;;;9.37;;
57551;SDS011;43379;48.160;14.036;2022-08-19T03:51:26;9.30;;;8.60;;
57551;SDS011;43379;48.160;14.036;2022-08-19T03:53:56;10.30;;;9.23;;
57551;SDS011;43379;48.160;14.036;2022-08-19T03:56:23;10.13;;;9.40;;
57551;SDS011;43379;48.160;14.036;2022-08-19T03:58:53;9.43;;;8.63;;
57551;SDS011;43379;48.160;14.036;2022-08-19T04:01:21;10.00;;;9.20;;
57551;SDS011;43379;48.160;14.036;2022-08-19T04:03:48;10.33;;;9.43;;
57551;SDS011;43379;48.160;14.036;2022-08-19T04:09:01;10.13;;;9.43;;
57551;SDS011;43379;48.160;14.036;2022-08-19T04:11:30;10.63;;;9.80;;
57551;SDS011;43379;48.160;14.036;2022-08-19T04:14:00;9.73;;;8.83;;
57551;SDS011;43379;48.160;14.036;2022-08-19T04:16:27;9.97;;;9.20;;
57551;SDS011;43379;48.160;14.036;2022-08-19T04:18:56;11.53;;;10.63;;
57551;SDS011;43379;48.160;14.036;2022-08-19T04:21:25;10.83;;;9.87;;
57551;SDS011;43379;48.160;14.036;2022-08-19T04:23:52;10.30;;;9.40;;
57551;SDS011;43379;48.160;14.036;2022-08-19T04:26:23;10.83;;;9.90;;
57551;SDS011;43379;48.160;14.036;2022-08-19T04:28:53;10.40;;;9.70;;
57551;SDS011;43379;48.160;14.036;2022-08-19T04:31:23;11.73;;;10.67;;
57551;SDS011;43379;48.160;14.036;2022-08-19T04:33:55;11.93;;;10.93;;
57551;SDS011;43379;48.160;14.036;2022-08-19T04:36:27;14.20;;;12.90;;
57551;SDS011;43379;48.160;14.036;2022-08-19T04:38:56;13.03;;;12.03;;
57551;SDS011;43379;48.160;14.036;2022-08-19T04:41:23;11.97;;;11.07;;
57551;SDS011;43379;48.160;14.036;2022-08-19T04:44:08;12.23;;;10.90;;
57551;SDS011;43379;48.160;14.036;2022-08-19T04:46:35;13.77;;;12.57;;
57551;SDS011;43379;48.160;14.036;2022-08-19T04:49:02;13.33;;;12.23;;
57551;SDS011;43379;48.160;14.036;2022-08-19T04:51:30;14.60;;;12.93;;
57551;SDS011;43379;48.160;14.036;2022-08-19T04:53:56;13.40;;;12.30;;
57551;SDS011;43379;48.160;14.036;2022-08-19T04:56:23;14.80;;;13.50;;
57551;SDS011;43379;48.160;14.036;2022-08-19T04:58:51;12.87;;;11.87;;
57551;SDS011;43379;48.160;14.036;2022-08-19T05:01:18;15.30;;;13.90;;
57551;SDS011;43379;48.160;14.036;2022-08-19T05:03:46;15.93;;;14.43;;
57551;SDS011;43379;48.160;14.036;2022-08-19T05:06:13;16.97;;;14.27;;
57551;SDS011;43379;48.160;14.036;2022-08-19T05:08:41;15.43;;;13.90;;
57551;SDS011;43379;48.160;14.036;2022-08-19T05:11:30;16.23;;;14.63;;
57551;SDS011;43379;48.160;14.036;2022-08-19T05:13:55;16.93;;;15.53;;
57551;SDS011;43379;48.160;14.036;2022-08-19T05:16:22;16.10;;;14.70;;
57551;SDS011;43379;48.160;14.036;2022-08-19T05:18:49;16.83;;;15.27;;
57551;SDS011;43379;48.160;14.036;2022-08-19T05:21:34;17.00;;;15.47;;
57551;SDS011;43379;48.160;14.036;2022-08-19T05:24:19;16.60;;;15.10;;
57551;SDS011;43379;48.160;14.036;2022-08-19T05:26:47;15.60;;;14.27;;
57551;SDS011;43379;48.160;14.036;2022-08-19T05:29:15;14.80;;;13.60;;
57551;SDS011;43379;48.160;14.036;2022-08-19T05:31:43;14.73;;;13.63;;
57551;SDS011;43379;48.160;14.036;2022-08-19T05:34:10;24.13;;;15.67;;
57551;SDS011;43379;48.160;14.036;2022-08-19T05:36:38;17.57;;;16.27;;
57551;SDS011;43379;48.160;14.036;2022-08-19T05:39:06;15.57;;;14.30;;
57551;SDS011;43379;48.160;14.036;2022-08-19T05:41:33;17.70;;;16.23;;
57551;SDS011;43379;48.160;14.036;2022-08-19T05:44:00;16.50;;;14.87;;
57551;SDS011;43379;48.160;14.036;2022-08-19T05:46:28;17.23;;;15.80;;
57551;SDS011;43379;48.160;14.036;2022-08-19T05:48:54;17.43;;;16.10;;
57551;SDS011;43379;48.160;14.036;2022-08-19T05:51:21;17.73;;;16.00;;
57551;SDS011;43379;48.160;14.036;2022-08-19T05:53:48;17.60;;;16.10;;
57551;SDS011;43379;48.160;14.036;2022-08-19T05:56:15;18.07;;;16.57;;
57551;SDS011;43379;48.160;14.036;2022-08-19T05:58:41;18.03;;;16.23;;
57551;SDS011;43379;48.160;14.036;2022-08-19T06:01:12;18.00;;;16.33;;
57551;SDS011;43379;48.160;14.036;2022-08-19T06:03:42;16.03;;;14.60;;
57551;SDS011;43379;48.160;14.036;2022-08-19T06:06:08;18.67;;;16.77;;
57551;SDS011;43379;48.160;14.036;2022-08-19T06:08:35;17.73;;;16.27;;
57551;SDS011;43379;48.160;14.036;2022-08-19T06:11:12;19.00;;;17.50;;
57551;SDS011;43379;48.160;14.036;2022-08-19T06:14:00;17.50;;;16.03;;
57551;SDS011;43379;48.160;14.036;2022-08-19T06:16:28;20.00;;;18.30;;
57551;SDS011;43379;48.160;14.036;2022-08-19T06:19:00;21.00;;;19.00;;
57551;SDS011;43379;48.160;14.036;2022-08-19T06:21:28;18.20;;;16.70;;
57551;SDS011;43379;48.160;14.036;2022-08-19T06:23:55;19.93;;;18.17;;
57551;SDS011;43379;48.160;14.036;2022-08-19T06:26:22;19.03;;;17.40;;
57551;SDS011;43379;48.160;14.036;2022-08-19T06:28:49;21.23;;;19.30;;
57551;SDS011;43379;48.160;14.036;2022-08-19T06:31:16;18.03;;;16.50;;
57551;SDS011;43379;48.160;14.036;2022-08-19T06:33:45;18.77;;;17.10;;
57551;SDS011;43379;48.160;14.036;2022-08-19T06:36:23;19.60;;;18.00;;
57551;SDS011;43379;48.160;14.036;2022-08-19T06:38:55;19.93;;;18.43;;
57551;SDS011;43379;48.160;14.036;2022-08-19T06:41:22;20.33;;;18.83;;
57551;SDS011;43379;48.160;14.036;2022-08-19T06:43:49;19.97;;;18.27;;
57551;SDS011;43379;48.160;14.036;2022-08-19T06:46:16;21.00;;;19.37;;
57551;SDS011;43379;48.160;14.036;2022-08-19T06:48:44;23.30;;;21.50;;
57551;SDS011;43379;48.160;14.036;2022-08-19T06:51:11;21.10;;;19.13;;
57551;SDS011;43379;48.160;14.036;2022-08-19T06:53:40;21.23;;;19.40;;
57551;SDS011;43379;48.160;14.036;2022-08-19T06:56:11;19.67;;;18.10;;
57551;SDS011;43379;48.160;14.036;2022-08-19T06:58:38;21.57;;;19.97;;
57551;SDS011;43379;48.160;14.036;2022-08-19T07:01:04;19.80;;;18.30;;
57551;SDS011;43379;48.160;14.036;2022-08-19T07:03:31;19.93;;;18.23;;
57551;SDS011;43379;48.160;14.036;2022-08-19T07:06:09;17.53;;;16.07;;
57551;SDS011;43379;48.160;14.036;2022-08-19T07:08:37;19.67;;;17.80;;
57551;SDS011;43379;48.160;14.036;2022-08-19T07:11:10;18.77;;;17.27;;
57551;SDS011;43379;48.160;14.036;2022-08-19T07:13:38;20.00;;;18.40;;
57551;SDS011;43379;48.160;14.036;2022-08-19T07:16:09;18.03;;;16.53;;
57551;SDS011;43379;48.160;14.036;2022-08-19T07:18:39;19.00;;;17.40;;
57551;SDS011;43379;48.160;14.036;2022-08-19T07:21:10;20.60;;;18.90;;
57551;SDS011;43379;48.160;14.036;2022-08-19T07:23:37;18.53;;;17.00;;
57551;SDS011;43379;48.160;14.036;2022-08-19T07:26:10;18.63;;;17.10;;
57551;SDS011;43379;48.160;14.036;2022-08-19T07:28:39;19.27;;;17.87;;
57551;SDS011;43379;48.160;14.036;2022-08-19T07:31:07;19.80;;;18.17;;
57551;SDS011;43379;48.160;14.036;2022-08-19T07:33:38;21.93;;;20.10;;
57551;SDS011;43379;48.160;14.036;2022-08-19T07:36:04;21.40;;;19.70;;
57551;SDS011;43379;48.160;14.036;2022-08-19T07:38:33;20.53;;;18.93;;
57551;SDS011;43379;48.160;14.036;2022-08-19T07:40:59;20.33;;;18.73;;
57551;SDS011;43379;48.160;14.036;2022-08-19T07:43:26;20.03;;;18.43;;
57551;SDS011;43379;48.160;14.036;2022-08-19T07:45:53;20.77;;;19.20;;
57551;SDS011;43379;48.160;14.036;2022-08-19T07:48:25;20.47;;;18.80;;
57551;SDS011;43379;48.160;14.036;2022-08-19T07:50:53;21.93;;;20.17;;
57551;SDS011;43379;48.160;14.036;2022-08-19T07:53:23;20.23;;;18.63;;
57551;SDS011;43379;48.160;14.036;2022-08-19T07:55:50;19.33;;;17.73;;
57551;SDS011;43379;48.160;14.036;2022-08-19T07:58:18;21.97;;;20.27;;
57551;SDS011;43379;48.160;14.036;2022-08-19T08:00:46;21.00;;;19.33;;
57551;SDS011;43379;48.160;14.036;2022-08-19T08:03:15;19.80;;;18.17;;
57551;SDS011;43379;48.160;14.036;2022-08-19T08:05:43;19.73;;;18.13;;
57551;SDS011;43379;48.160;14.036;2022-08-19T08:08:28;18.00;;;16.57;;
57551;SDS011;43379;48.160;14.036;2022-08-19T08:11:12;17.47;;;16.13;;
57551;SDS011;43379;48.160;14.036;2022-08-19T08:13:38;18.57;;;17.20;;
57551;SDS011;43379;48.160;14.036;2022-08-19T08:16:06;18.37;;;16.77;;
57551;SDS011;43379;48.160;14.036;2022-08-19T08:18:32;18.23;;;16.83;;
57551;SDS011;43379;48.160;14.036;2022-08-19T08:20:59;21.40;;;19.80;;
57551;SDS011;43379;48.160;14.036;2022-08-19T08:23:25;18.10;;;16.63;;
57551;SDS011;43379;48.160;14.036;2022-08-19T08:25:52;18.77;;;17.30;;
57551;SDS011;43379;48.160;14.036;2022-08-19T08:28:20;15.57;;;14.37;;
57551;SDS011;43379;48.160;14.036;2022-08-19T08:30:46;16.37;;;14.70;;
57551;SDS011;43379;48.160;14.036;2022-08-19T08:33:14;16.30;;;14.97;;
57551;SDS011;43379;48.160;14.036;2022-08-19T08:35:46;15.47;;;14.27;;
57551;SDS011;43379;48.160;14.036;2022-08-19T08:38:12;18.60;;;17.00;;
57551;SDS011;43379;48.160;14.036;2022-08-19T08:40:42;17.57;;;16.33;;
57551;SDS011;43379;48.160;14.036;2022-08-19T08:45:49;12.83;;;11.83;;
57551;SDS011;43379;48.160;14.036;2022-08-19T08:51:01;16.37;;;15.27;;
57551;SDS011;43379;48.160;14.036;2022-08-19T08:53:30;16.00;;;14.57;;
57551;SDS011;43379;48.160;14.036;2022-08-19T08:55:56;14.87;;;13.70;;
57551;SDS011;43379;48.160;14.036;2022-08-19T08:58:29;17.73;;;16.30;;
57551;SDS011;43379;48.160;14.036;2022-08-19T09:01:08;14.67;;;13.53;;
57551;SDS011;43379;48.160;14.036;2022-08-19T09:03:36;16.20;;;15.00;;
57551;SDS011;43379;48.160;14.036;2022-08-19T09:09:05;18.57;;;17.20;;
57551;SDS011;43379;48.160;14.036;2022-08-19T09:14:54;16.10;;;14.80;;
57551;SDS011;43379;48.160;14.036;2022-08-19T09:17:31;14.80;;;13.80;;
57551;SDS011;43379;48.160;14.036;2022-08-19T09:20:04;15.30;;;14.20;;
57551;SDS011;43379;48.160;14.036;2022-08-19T09:22:33;15.00;;;13.90;;
57551;SDS011;43379;48.160;14.036;2022-08-19T09:25:00;16.40;;;15.10;;
57551;SDS011;43379;48.160;14.036;2022-08-19T09:27:32;18.73;;;16.90;;
57551;SDS011;43379;48.160;14.036;2022-08-19T09:30:04;18.23;;;16.63;;
57551;SDS011;43379;48.160;14.036;2022-08-19T09:32:30;17.10;;;15.70;;
57551;SDS011;43379;48.160;14.036;2022-08-19T09:34:59;17.70;;;16.30;;
57551;SDS011;43379;48.160;14.036;2022-08-19T09:37:26;17.80;;;16.20;;
57551;SDS011;43379;48.160;14.036;2022-08-19T09:39:52;16.53;;;15.43;;
57551;SDS011;43379;48.160;14.036;2022-08-19T09:42:18;16.63;;;15.33;;
57551;SDS011;43379;48.160;14.036;2022-08-19T09:44:45;18.77;;;16.97;;
57551;SDS011;43379;48.160;14.036;2022-08-19T09:47:11;15.10;;;13.97;;
57551;SDS011;43379;48.160;14.036;2022-08-19T09:49:38;15.50;;;14.33;;
57551;SDS011;43379;48.160;14.036;2022-08-19T09:52:04;16.33;;;15.13;;
57551;SDS011;43379;48.160;14.036;2022-08-19T09:54:33;14.77;;;13.43;;
57551;SDS011;43379;48.160;14.036;2022-08-19T09:57:00;14.13;;;13.10;;
57551;SDS011;43379;48.160;14.036;2022-08-19T09:59:26;15.50;;;14.37;;
57551;SDS011;43379;48.160;14.036;2022-08-19T10:01:53;13.63;;;12.73;;
57551;SDS011;43379;48.160;14.036;2022-08-19T10:04:19;15.10;;;14.00;;
57551;SDS011;43379;48.160;14.036;2022-08-19T10:06:46;13.90;;;12.80;;
57551;SDS011;43379;48.160;14.036;2022-08-19T10:09:12;13.93;;;12.83;;
57551;SDS011;43379;48.160;14.036;2022-08-19T10:11:41;14.70;;;13.60;;
57551;SDS011;43379;48.160;14.036;2022-08-19T10:14:08;12.07;;;11.17;;
57551;SDS011;43379;48.160;14.036;2022-08-19T10:16:35;10.20;;;9.50;;
57551;SDS011;43379;48.160;14.036;2022-08-19T10:19:02;11.33;;;10.53;;
57551;SDS011;43379;48.160;14.036;2022-08-19T10:21:29;13.00;;;12.00;;
57551;SDS011;43379;48.160;14.036;2022-08-19T10:23:57;10.97;;;10.17;;
57551;SDS011;43379;48.160;14.036;2022-08-19T10:26:26;11.40;;;10.60;;
57551;SDS011;43379;48.160;14.036;2022-08-19T10:28:54;10.90;;;10.10;;
57551;SDS011;43379;48.160;14.036;2022-08-19T10:31:23;11.20;;;10.43;;
57551;SDS011;43379;48.160;14.036;2022-08-19T10:33:51;12.83;;;11.93;;
57551;SDS011;43379;48.160;14.036;2022-08-19T10:36:23;10.97;;;10.27;;
57551;SDS011;43379;48.160;14.036;2022-08-19T10:38:53;10.67;;;9.87;;
57551;SDS011;43379;48.160;14.036;2022-08-19T10:41:23;11.00;;;10.17;;
57551;SDS011;43379;48.160;14.036;2022-08-19T10:43:51;9.77;;;9.07;;
57551;SDS011;43379;48.160;14.036;2022-08-19T10:46:19;9.20;;;8.60;;
57551;SDS011;43379;48.160;14.036;2022-08-19T10:48:47;9.30;;;8.50;;
57551;SDS011;43379;48.160;14.036;2022-08-19T10:51:13;10.83;;;10.07;;
57551;SDS011;43379;48.160;14.036;2022-08-19T10:53:58;11.30;;;10.33;;
57551;SDS011;43379;48.160;14.036;2022-08-19T10:56:25;11.20;;;10.40;;
57551;SDS011;43379;48.160;14.036;2022-08-19T10:59:10;12.40;;;11.53;;
57551;SDS011;43379;48.160;14.036;2022-08-19T11:01:37;10.87;;;10.10;;
57551;SDS011;43379;48.160;14.036;2022-08-19T11:04:04;11.63;;;10.70;;
57551;SDS011;43379;48.160;14.036;2022-08-19T11:06:33;9.90;;;9.20;;
57551;SDS011;43379;48.160;14.036;2022-08-19T11:08:58;10.50;;;9.70;;
57551;SDS011;43379;48.160;14.036;2022-08-19T11:11:25;9.97;;;9.27;;
57551;SDS011;43379;48.160;14.036;2022-08-19T11:13:51;10.30;;;9.60;;
57551;SDS011;43379;48.160;14.036;2022-08-19T11:16:20;10.27;;;9.47;;
57551;SDS011;43379;48.160;14.036;2022-08-19T11:18:49;10.10;;;9.50;;
57551;SDS011;43379;48.160;14.036;2022-08-19T11:21:21;9.70;;;9.00;;
57551;SDS011;43379;48.160;14.036;2022-08-19T11:23:54;9.97;;;9.27;;
57551;SDS011;43379;48.160;14.036;2022-08-19T11:26:21;9.40;;;8.80;;
57551;SDS011;43379;48.160;14.036;2022-08-19T11:28:48;9.87;;;9.17;;
57551;SDS011;43379;48.160;14.036;2022-08-19T11:31:18;10.93;;;10.23;;
57551;SDS011;43379;48.160;14.036;2022-08-19T11:33:45;9.83;;;9.20;;
57551;SDS011;43379;48.160;14.036;2022-08-19T11:36:15;11.00;;;10.30;;
57551;SDS011;43379;48.160;14.036;2022-08-19T11:38:41;11.40;;;10.60;;
57551;SDS011;43379;48.160;14.036;2022-08-19T11:41:07;10.70;;;10.00;;
57551;SDS011;43379;48.160;14.036;2022-08-19T11:43:34;9.57;;;8.97;;
57551;SDS011;43379;48.160;14.036;2022-08-19T11:46:03;10.70;;;10.00;;
57551;SDS011;43379;48.160;14.036;2022-08-19T11:48:33;11.37;;;10.33;;
57551;SDS011;43379;48.160;14.036;2022-08-19T11:51:02;11.10;;;10.33;;
57551;SDS011;43379;48.160;14.036;2022-08-19T11:53:31;9.70;;;9.10;;
57551;SDS011;43379;48.160;14.036;2022-08-19T11:55:57;8.97;;;8.27;;
57551;SDS011;43379;48.160;14.036;2022-08-19T11:58:23;9.20;;;8.60;;
57551;SDS011;43379;48.160;14.036;2022-08-19T12:00:50;10.37;;;9.63;;
57551;SDS011;43379;48.160;14.036;2022-08-19T12:03:16;10.30;;;9.50;;
57551;SDS011;43379;48.160;14.036;2022-08-19T12:05:44;11.43;;;10.53;;
57551;SDS011;43379;48.160;14.036;2022-08-19T12:08:11;41.63;;;29.70;;
57551;SDS011;43379;48.160;14.036;2022-08-19T12:10:38;78.57;;;54.50;;
57551;SDS011;43379;48.160;14.036;2022-08-19T12:13:04;14.60;;;13.30;;
57551;SDS011;43379;48.160;14.036;2022-08-19T12:15:35;13.50;;;12.30;;
57551;SDS011;43379;48.160;14.036;2022-08-19T12:18:02;20.63;;;18.23;;
57551;SDS011;43379;48.160;14.036;2022-08-19T12:20:28;37.03;;;25.63;;
57551;SDS011;43379;48.160;14.036;2022-08-19T12:22:54;13.60;;;12.33;;
57551;SDS011;43379;48.160;14.036;2022-08-19T12:25:20;12.67;;;11.57;;
57551;SDS011;43379;48.160;14.036;2022-08-19T12:27:46;17.07;;;15.40;;
57551;SDS011;43379;48.160;14.036;2022-08-19T12:30:12;12.80;;;11.70;;
57551;SDS011;43379;48.160;14.036;2022-08-19T12:32:39;16.10;;;14.40;;
57551;SDS011;43379;48.160;14.036;2022-08-19T12:35:06;13.00;;;11.80;;
57551;SDS011;43379;48.160;14.036;2022-08-19T12:37:34;11.40;;;10.40;;
57551;SDS011;43379;48.160;14.036;2022-08-19T12:39:59;13.80;;;12.63;;
57551;SDS011;43379;48.160;14.036;2022-08-19T12:42:25;13.90;;;12.70;;
57551;SDS011;43379;48.160;14.036;2022-08-19T12:44:51;12.03;;;11.07;;
57551;SDS011;43379;48.160;14.036;2022-08-19T12:47:17;9.70;;;8.90;;
57551;SDS011;43379;48.160;14.036;2022-08-19T12:49:43;12.80;;;11.63;;
57551;SDS011;43379;48.160;14.036;2022-08-19T12:52:11;11.90;;;10.90;;
57551;SDS011;43379;48.160;14.036;2022-08-19T12:54:40;12.30;;;11.10;;
57551;SDS011;43379;48.160;14.036;2022-08-19T12:57:07;10.73;;;9.73;;
57551;SDS011;43379;48.160;14.036;2022-08-19T12:59:35;18.97;;;16.00;;
57551;SDS011;43379;48.160;14.036;2022-08-19T13:02:02;15.73;;;14.10;;
57551;SDS011;43379;48.160;14.036;2022-08-19T13:04:31;11.80;;;10.80;;
57551;SDS011;43379;48.160;14.036;2022-08-19T13:07:00;13.10;;;11.90;;
57551;SDS011;43379;48.160;14.036;2022-08-19T13:09:26;11.37;;;10.40;;
57551;SDS011;43379;48.160;14.036;2022-08-19T13:11:52;16.83;;;13.87;;
57551;SDS011;43379;48.160;14.036;2022-08-19T13:14:18;11.37;;;10.27;;
57551;SDS011;43379;48.160;14.036;2022-08-19T13:16:43;9.73;;;9.03;;
57551;SDS011;43379;48.160;14.036;2022-08-19T13:19:09;11.77;;;10.77;;
57551;SDS011;43379;48.160;14.036;2022-08-19T13:21:37;12.63;;;11.53;;
57551;SDS011;43379;48.160;14.036;2022-08-19T13:24:02;9.70;;;8.73;;
57551;SDS011;43379;48.160;14.036;2022-08-19T13:26:28;8.87;;;8.07;;
57551;SDS011;43379;48.160;14.036;2022-08-19T13:28:54;9.37;;;8.63;;
57551;SDS011;43379;48.160;14.036;2022-08-19T13:31:39;10.40;;;8.33;;
57551;SDS011;43379;48.160;14.036;2022-08-19T13:34:32;9.40;;;7.87;;
57551;SDS011;43379;48.160;14.036;2022-08-19T13:37:00;8.10;;;7.40;;
57551;SDS011;43379;48.160;14.036;2022-08-19T13:39:31;7.73;;;7.03;;
57551;SDS011;43379;48.160;14.036;2022-08-19T13:41:58;14.77;;;10.53;;
57551;SDS011;43379;48.160;14.036;2022-08-19T13:44:25;9.63;;;8.67;;
57551;SDS011;43379;48.160;14.036;2022-08-19T13:46:54;8.63;;;7.83;;
57551;SDS011;43379;48.160;14.036;2022-08-19T13:49:27;8.47;;;7.87;;
57551;SDS011;43379;48.160;14.036;2022-08-19T13:51:56;10.40;;;8.23;;
57551;SDS011;43379;48.160;14.036;2022-08-19T13:54:22;7.87;;;7.27;;
57551;SDS011;43379;48.160;14.036;2022-08-19T13:56:47;8.13;;;7.53;;
57551;SDS011;43379;48.160;14.036;2022-08-19T13:59:13;7.53;;;7.03;;
57551;SDS011;43379;48.160;14.036;2022-08-19T14:01:39;8.30;;;7.70;;
57551;SDS011;43379;48.160;14.036;2022-08-19T14:04:06;6.90;;;6.40;;
57551;SDS011;43379;48.160;14.036;2022-08-19T14:06:33;6.73;;;6.23;;
57551;SDS011;43379;48.160;14.036;2022-08-19T14:08:58;7.00;;;6.50;;
57551;SDS011;43379;48.160;14.036;2022-08-19T14:11:24;6.40;;;5.90;;
57551;SDS011;43379;48.160;14.036;2022-08-19T14:13:51;6.70;;;6.03;;
57551;SDS011;43379;48.160;14.036;2022-08-19T14:16:16;6.93;;;6.33;;
57551;SDS011;43379;48.160;14.036;2022-08-19T14:18:42;6.90;;;6.40;;
57551;SDS011;43379;48.160;14.036;2022-08-19T14:21:13;7.17;;;6.60;;
57551;SDS011;43379;48.160;14.036;2022-08-19T14:23:45;6.43;;;5.93;;
57551;SDS011;43379;48.160;14.036;2022-08-19T14:26:12;6.57;;;6.07;;
57551;SDS011;43379;48.160;14.036;2022-08-19T14:28:39;7.53;;;6.90;;
57551;SDS011;43379;48.160;14.036;2022-08-19T14:31:06;7.10;;;6.50;;
57551;SDS011;43379;48.160;14.036;2022-08-19T14:33:33;7.07;;;6.47;;
57551;SDS011;43379;48.160;14.036;2022-08-19T14:35:59;7.47;;;6.87;;
57551;SDS011;43379;48.160;14.036;2022-08-19T14:38:25;7.87;;;7.23;;
57551;SDS011;43379;48.160;14.036;2022-08-19T14:40:51;6.30;;;5.90;;
57551;SDS011;43379;48.160;14.036;2022-08-19T14:43:17;6.67;;;6.17;;